Rocklin, California
Current Conditions -  °F | °C
As of 10:15 AM on Thursday 30 Oct 2014 (Local Time) from KLHM Reporting Station
Clear Clear  
Wind Chill: 63°   Ceiling: Unl
Heat Index: 63°   Visibility: 10mi
Dew Point: 50°   Wind: 0mph
Humidity: 63%   Direction: NA
Pressure: 29.97"   Gusts: NA
Location:  38.79°N, 121.23°W
Report Text: KLHM 301715Z AUTO 00000KT 10SM CLR 17/10 A2997 RMK AO1
Loading
Personal Weather Stations






























Interactive Weather Map
Tropical Storm Tracking
New forecast layout! Learn more

10-Day Weather Forecast

Advertisements
Track Severe Weather on mobile